sensor_id;sensor_type;location;lat;lon;timestamp;temperature;humidity
59067;DHT22;44854;50.838;4.438;2022-11-06T06:22:31;11.80;99.90
59067;DHT22;44854;50.838;4.438;2022-11-06T06:24:57;11.60;99.90
59067;DHT22;44854;50.838;4.438;2022-11-06T06:27:22;11.70;99.90
59067;DHT22;44854;50.838;4.438;2022-11-06T06:29:50;11.70;99.90
59067;DHT22;44854;50.838;4.438;2022-11-06T06:32:15;11.70;99.90
59067;DHT22;44854;50.838;4.438;2022-11-06T06:34:41;11.80;99.90
59067;DHT22;44854;50.838;4.438;2022-11-06T06:37:06;11.80;99.90
59067;DHT22;44854;50.838;4.438;2022-11-06T06:39:32;11.80;99.90
59067;DHT22;44854;50.838;4.438;2022-11-06T06:41:58;12.00;99.90
59067;DHT22;44854;50.838;4.438;2022-11-06T06:44:23;11.70;99.90
59067;DHT22;44854;50.838;4.438;2022-11-06T06:46:49;11.70;99.90
59067;DHT22;44854;50.838;4.438;2022-11-06T06:49:14;11.70;99.90
59067;DHT22;44854;50.838;4.438;2022-11-06T06:51:40;11.70;99.90
59067;DHT22;44854;50.838;4.438;2022-11-06T06:54:05;11.90;99.90
59067;DHT22;44854;50.838;4.438;2022-11-06T06:56:32;11.90;99.90
59067;DHT22;44854;50.838;4.438;2022-11-06T06:59:00;11.80;99.90
59067;DHT22;44854;50.838;4.438;2022-11-06T07:01:26;12.00;99.90
59067;DHT22;44854;50.838;4.438;2022-11-06T07:03:52;12.10;99.90
59067;DHT22;44854;50.838;4.438;2022-11-06T07:06:18;12.00;99.90
59067;DHT22;44854;50.838;4.438;2022-11-06T07:08:44;11.90;99.90
59067;DHT22;44854;50.838;4.438;2022-11-06T07:11:10;11.90;99.90
59067;DHT22;44854;50.838;4.438;2022-11-06T07:13:35;11.80;99.90
59067;DHT22;44854;50.838;4.438;2022-11-06T07:16:04;11.80;99.90
59067;DHT22;44854;50.838;4.438;2022-11-06T07:18:30;11.80;99.90
59067;DHT22;44854;50.838;4.438;2022-11-06T07:20:55;11.90;99.90
59067;DHT22;44854;50.838;4.438;2022-11-06T07:23:21;12.00;99.90
59067;DHT22;44854;50.838;4.438;2022-11-06T07:25:52;12.00;99.90
59067;DHT22;44854;50.838;4.438;2022-11-06T07:28:18;12.10;99.90
59067;DHT22;44854;50.838;4.438;2022-11-06T07:30:44;12.10;99.90
59067;DHT22;44854;50.838;4.438;2022-11-06T07:33:10;12.20;99.90
59067;DHT22;44854;50.838;4.438;2022-11-06T07:35:35;12.20;99.90
59067;DHT22;44854;50.838;4.438;2022-11-06T07:38:04;12.20;99.90
59067;DHT22;44854;50.838;4.438;2022-11-06T07:40:31;12.20;99.90
59067;DHT22;44854;50.838;4.438;2022-11-06T07:43:01;12.20;99.90
59067;DHT22;44854;50.838;4.438;2022-11-06T07:45:27;12.30;99.90
59067;DHT22;44854;50.838;4.438;2022-11-06T07:47:54;12.20;99.90
59067;DHT22;44854;50.838;4.438;2022-11-06T07:50:20;12.40;99.90
59067;DHT22;44854;50.838;4.438;2022-11-06T07:52:45;12.40;99.90
59067;DHT22;44854;50.838;4.438;2022-11-06T07:55:10;12.30;99.90
59067;DHT22;44854;50.838;4.438;2022-11-06T07:57:36;12.30;99.90
59067;DHT22;44854;50.838;4.438;2022-11-06T08:00:03;12.50;99.90
59067;DHT22;44854;50.838;4.438;2022-11-06T08:02:28;12.60;99.90
59067;DHT22;44854;50.838;4.438;2022-11-06T08:04:54;12.50;99.90
59067;DHT22;44854;50.838;4.438;2022-11-06T08:07:20;12.40;99.90
59067;DHT22;44854;50.838;4.438;2022-11-06T08:09:45;12.40;99.90
59067;DHT22;44854;50.838;4.438;2022-11-06T08:12:11;12.40;99.90
59067;DHT22;44854;50.838;4.438;2022-11-06T08:14:39;12.40;99.90
59067;DHT22;44854;50.838;4.438;2022-11-06T08:17:04;12.60;99.90
59067;DHT22;44854;50.838;4.438;2022-11-06T08:19:30;12.50;99.90
59067;DHT22;44854;50.838;4.438;2022-11-06T08:21:55;12.40;99.90
59067;DHT22;44854;50.838;4.438;2022-11-06T08:24:21;12.50;99.90
59067;DHT22;44854;50.838;4.438;2022-11-06T08:26:46;12.50;99.90
59067;DHT22;44854;50.838;4.438;2022-11-06T08:29:12;12.70;99.90
59067;DHT22;44854;50.838;4.438;2022-11-06T08:31:38;12.70;99.90
59067;DHT22;44854;50.838;4.438;2022-11-06T08:34:03;12.50;99.90
59067;DHT22;44854;50.838;4.438;2022-11-06T08:36:29;12.60;99.90
59067;DHT22;44854;50.838;4.438;2022-11-06T08:38:55;12.50;99.90
59067;DHT22;44854;50.838;4.438;2022-11-06T08:41:20;12.70;99.90
59067;DHT22;44854;50.838;4.438;2022-11-06T08:43:49;13.00;99.90
59067;DHT22;44854;50.838;4.438;2022-11-06T08:46:15;12.90;99.90
59067;DHT22;44854;50.838;4.438;2022-11-06T08:48:41;12.90;99.90
59067;DHT22;44854;50.838;4.438;2022-11-06T08:51:06;12.70;99.90
59067;DHT22;44854;50.838;4.438;2022-11-06T08:53:32;12.70;99.90
59067;DHT22;44854;50.838;4.438;2022-11-06T08:55:57;12.80;99.90
59067;DHT22;44854;50.838;4.438;2022-11-06T08:58:23;12.80;99.90
59067;DHT22;44854;50.838;4.438;2022-11-06T09:00:49;12.70;99.90
59067;DHT22;44854;50.838;4.438;2022-11-06T09:03:14;12.70;99.90
59067;DHT22;44854;50.838;4.438;2022-11-06T09:05:42;12.70;99.90
59067;DHT22;44854;50.838;4.438;2022-11-06T09:08:08;12.70;99.90
59067;DHT22;44854;50.838;4.438;2022-11-06T09:10:34;12.80;99.90
59067;DHT22;44854;50.838;4.438;2022-11-06T09:12:59;12.80;99.90
59067;DHT22;44854;50.838;4.438;2022-11-06T09:15:25;12.70;99.90
59067;DHT22;44854;50.838;4.438;2022-11-06T09:17:50;12.60;99.90
59067;DHT22;44854;50.838;4.438;2022-11-06T09:20:16;12.60;99.90
59067;DHT22;44854;50.838;4.438;2022-11-06T09:22:43;12.60;99.90
59067;DHT22;44854;50.838;4.438;2022-11-06T09:25:09;12.60;99.90
59067;DHT22;44854;50.838;4.438;2022-11-06T09:27:51;12.60;99.90
59067;DHT22;44854;50.838;4.438;2022-11-06T09:30:17;12.70;99.90
59067;DHT22;44854;50.838;4.438;2022-11-06T09:32:47;12.60;99.90
59067;DHT22;44854;50.838;4.438;2022-11-06T09:35:13;12.60;99.90
59067;DHT22;44854;50.838;4.438;2022-11-06T09:37:39;12.60;99.90
59067;DHT22;44854;50.838;4.438;2022-11-06T09:40:04;12.70;99.90
59067;DHT22;44854;50.838;4.438;2022-11-06T09:42:34;12.80;99.90
59067;DHT22;44854;50.838;4.438;2022-11-06T09:45:12;12.80;99.90
59067;DHT22;44854;50.838;4.438;2022-11-06T09:47:40;12.90;99.90
59067;DHT22;44854;50.838;4.438;2022-11-06T09:50:10;12.80;99.90
59067;DHT22;44854;50.838;4.438;2022-11-06T09:52:39;13.00;99.90
59067;DHT22;44854;50.838;4.438;2022-11-06T09:55:13;13.00;99.90
59067;DHT22;44854;50.838;4.438;2022-11-06T09:57:47;13.10;99.90
59067;DHT22;44854;50.838;4.438;2022-11-06T10:00:15;13.10;99.90
59067;DHT22;44854;50.838;4.438;2022-11-06T10:05:15;13.00;99.90
59067;DHT22;44854;50.838;4.438;2022-11-06T10:07:42;12.90;99.90
59067;DHT22;44854;50.838;4.438;2022-11-06T10:10:14;13.10;99.90
59067;DHT22;44854;50.838;4.438;2022-11-06T10:15:15;12.90;99.90
59067;DHT22;44854;50.838;4.438;2022-11-06T10:17:57;12.90;99.90
59067;DHT22;44854;50.838;4.438;2022-11-06T10:20:28;12.90;99.90
59067;DHT22;44854;50.838;4.438;2022-11-06T10:23:04;13.00;99.90
59067;DHT22;44854;50.838;4.438;2022-11-06T10:25:38;12.90;99.90
59067;DHT22;44854;50.838;4.438;2022-11-06T10:28:30;13.10;99.90
59067;DHT22;44854;50.838;4.438;2022-11-06T10:31:02;12.90;99.90
59067;DHT22;44854;50.838;4.438;2022-11-06T10:35:58;13.00;99.90
59067;DHT22;44854;50.838;4.438;2022-11-06T10:38:28;13.00;99.90
59067;DHT22;44854;50.838;4.438;2022-11-06T10:40:54;13.00;99.90
59067;DHT22;44854;50.838;4.438;2022-11-06T10:43:24;13.00;99.90
59067;DHT22;44854;50.838;4.438;2022-11-06T10:45:54;13.10;99.90
59067;DHT22;44854;50.838;4.438;2022-11-06T10:48:22;13.10;99.90
59067;DHT22;44854;50.838;4.438;2022-11-06T10:58:29;13.10;99.90
59067;DHT22;44854;50.838;4.438;2022-11-06T11:01:05;13.20;99.90
59067;DHT22;44854;50.838;4.438;2022-11-06T11:03:35;13.20;99.90
59067;DHT22;44854;50.838;4.438;2022-11-06T11:06:04;13.20;99.90
59067;DHT22;44854;50.838;4.438;2022-11-06T11:08:30;13.30;99.90
59067;DHT22;44854;50.838;4.438;2022-11-06T11:13:27;13.50;99.90
59067;DHT22;44854;50.838;4.438;2022-11-06T11:15:52;13.50;99.90
59067;DHT22;44854;50.838;4.438;2022-11-06T11:18:21;13.50;99.90
59067;DHT22;44854;50.838;4.438;2022-11-06T11:20:49;13.50;99.90
59067;DHT22;44854;50.838;4.438;2022-11-06T11:23:20;13.60;99.90
59067;DHT22;44854;50.838;4.438;2022-11-06T11:25:55;13.60;99.90
59067;DHT22;44854;50.838;4.438;2022-11-06T11:28:25;13.50;99.90
59067;DHT22;44854;50.838;4.438;2022-11-06T11:30:52;13.20;99.90
59067;DHT22;44854;50.838;4.438;2022-11-06T11:33:18;13.20;99.90
59067;DHT22;44854;50.838;4.438;2022-11-06T11:35:46;13.20;99.90
59067;DHT22;44854;50.838;4.438;2022-11-06T11:38:13;13.20;99.90
59067;DHT22;44854;50.838;4.438;2022-11-06T11:40:39;13.20;99.90
59067;DHT22;44854;50.838;4.438;2022-11-06T11:46:01;13.30;99.90
59067;DHT22;44854;50.838;4.438;2022-11-06T11:48:39;13.20;99.90
59067;DHT22;44854;50.838;4.438;2022-11-06T11:51:18;13.30;99.90
59067;DHT22;44854;50.838;4.438;2022-11-06T11:53:45;13.20;99.90
59067;DHT22;44854;50.838;4.438;2022-11-06T11:56:18;13.00;99.90
59067;DHT22;44854;50.838;4.438;2022-11-06T11:58:52;13.00;99.90
59067;DHT22;44854;50.838;4.438;2022-11-06T12:01:18;13.00;99.90
59067;DHT22;44854;50.838;4.438;2022-11-06T12:03:46;12.90;99.90
59067;DHT22;44854;50.838;4.438;2022-11-06T12:06:17;12.90;99.90
59067;DHT22;44854;50.838;4.438;2022-11-06T12:08:45;12.80;99.90
59067;DHT22;44854;50.838;4.438;2022-11-06T12:11:12;13.00;99.90
59067;DHT22;44854;50.838;4.438;2022-11-06T12:13:39;12.90;99.90
59067;DHT22;44854;50.838;4.438;2022-11-06T12:18:41;12.70;99.90
59067;DHT22;44854;50.838;4.438;2022-11-06T12:23:45;12.60;99.90
59067;DHT22;44854;50.838;4.438;2022-11-06T12:29:03;12.20;99.90
59067;DHT22;44854;50.838;4.438;2022-11-06T12:34:18;12.20;99.90
59067;DHT22;44854;50.838;4.438;2022-11-06T12:36:48;12.10;99.90
59067;DHT22;44854;50.838;4.438;2022-11-06T12:39:17;12.00;99.90
59067;DHT22;44854;50.838;4.438;2022-11-06T12:41:46;12.00;99.90
59067;DHT22;44854;50.838;4.438;2022-11-06T12:44:13;12.10;99.90
59067;DHT22;44854;50.838;4.438;2022-11-06T12:59:38;12.40;99.90
59067;DHT22;44854;50.838;4.438;2022-11-06T13:12:53;12.70;99.90
59067;DHT22;44854;50.838;4.438;2022-11-06T13:17:59;12.50;99.90
59067;DHT22;44854;50.838;4.438;2022-11-06T13:22:56;12.10;99.90
59067;DHT22;44854;50.838;4.438;2022-11-06T13:25:26;12.20;99.90
59067;DHT22;44854;50.838;4.438;2022-11-06T13:30:20;11.80;99.90
59067;DHT22;44854;50.838;4.438;2022-11-06T13:32:56;11.70;99.90
59067;DHT22;44854;50.838;4.438;2022-11-06T13:35:24;11.80;99.90
59067;DHT22;44854;50.838;4.438;2022-11-06T13:37:50;11.70;99.90
59067;DHT22;44854;50.838;4.438;2022-11-06T13:42:44;11.70;99.90
59067;DHT22;44854;50.838;4.438;2022-11-06T13:45:13;11.50;99.90
59067;DHT22;44854;50.838;4.438;2022-11-06T13:56:04;11.40;99.90
59067;DHT22;44854;50.838;4.438;2022-11-06T13:58:37;11.40;99.90
59067;DHT22;44854;50.838;4.438;2022-11-06T14:04:00;11.50;99.90
59067;DHT22;44854;50.838;4.438;2022-11-06T14:06:31;11.20;99.90
59067;DHT22;44854;50.838;4.438;2022-11-06T14:09:04;11.20;99.90
59067;DHT22;44854;50.838;4.438;2022-11-06T14:11:33;11.30;99.90
59067;DHT22;44854;50.838;4.438;2022-11-06T14:14:06;11.30;99.90
59067;DHT22;44854;50.838;4.438;2022-11-06T14:16:36;11.10;99.90
59067;DHT22;44854;50.838;4.438;2022-11-06T14:26:53;11.10;99.90
59067;DHT22;44854;50.838;4.438;2022-11-06T14:31:57;11.00;99.90
59067;DHT22;44854;50.838;4.438;2022-11-06T14:34:28;11.10;99.90
59067;DHT22;44854;50.838;4.438;2022-11-06T14:36:54;11.10;99.90
59067;DHT22;44854;50.838;4.438;2022-11-06T14:40:00;11.00;99.90
59067;DHT22;44854;50.838;4.438;2022-11-06T14:42:05;10.90;99.90
59067;DHT22;44854;50.838;4.438;2022-11-06T14:44:38;10.80;99.90
59067;DHT22;44854;50.838;4.438;2022-11-06T14:47:05;10.60;99.90
59067;DHT22;44854;50.838;4.438;2022-11-06T14:49:33;10.60;99.90
59067;DHT22;44854;50.838;4.438;2022-11-06T14:52:04;10.60;99.90
59067;DHT22;44854;50.838;4.438;2022-11-06T14:54:30;10.70;99.90
59067;DHT22;44854;50.838;4.438;2022-11-06T14:56:56;10.70;99.90
59067;DHT22;44854;50.838;4.438;2022-11-06T14:59:33;10.70;99.90
59067;DHT22;44854;50.838;4.438;2022-11-06T15:04:45;10.80;99.90
59067;DHT22;44854;50.838;4.438;2022-11-06T15:15:43;10.40;99.90
59067;DHT22;44854;50.838;4.438;2022-11-06T15:18:10;10.40;99.90
59067;DHT22;44854;50.838;4.438;2022-11-06T15:20:36;10.40;99.90
59067;DHT22;44854;50.838;4.438;2022-11-06T15:23:05;10.40;99.90
59067;DHT22;44854;50.838;4.438;2022-11-06T15:25:32;10.40;99.90
59067;DHT22;44854;50.838;4.438;2022-11-06T15:28:10;10.40;99.90
59067;DHT22;44854;50.838;4.438;2022-11-06T15:30:45;10.40;99.90
59067;DHT22;44854;50.838;4.438;2022-11-06T15:33:13;10.50;99.90
59067;DHT22;44854;50.838;4.438;2022-11-06T15:35:39;10.50;99.90
59067;DHT22;44854;50.838;4.438;2022-11-06T15:38:15;10.60;99.90
59067;DHT22;44854;50.838;4.438;2022-11-06T15:40:41;10.70;99.90
59067;DHT22;44854;50.838;4.438;2022-11-06T15:43:40;10.40;99.90
59067;DHT22;44854;50.838;4.438;2022-11-06T15:46:01;10.20;99.90
59067;DHT22;44854;50.838;4.438;2022-11-06T15:48:26;9.90;99.90
59067;DHT22;44854;50.838;4.438;2022-11-06T15:50:52;9.80;99.90
59067;DHT22;44854;50.838;4.438;2022-11-06T15:53:25;9.80;99.90
59067;DHT22;44854;50.838;4.438;2022-11-06T16:00:42;9.90;99.90
59067;DHT22;44854;50.838;4.438;2022-11-06T16:03:09;9.90;99.90
59067;DHT22;44854;50.838;4.438;2022-11-06T16:05:36;10.00;99.90
59067;DHT22;44854;50.838;4.438;2022-11-06T16:08:02;10.00;99.90
59067;DHT22;44854;50.838;4.438;2022-11-06T16:10:29;9.90;99.90
59067;DHT22;44854;50.838;4.438;2022-11-06T16:12:55;10.00;99.90
59067;DHT22;44854;50.838;4.438;2022-11-06T16:18:05;10.00;99.90
59067;DHT22;44854;50.838;4.438;2022-11-06T16:20:30;10.00;99.90
59067;DHT22;44854;50.838;4.438;2022-11-06T16:22:56;10.00;99.90
59067;DHT22;44854;50.838;4.438;2022-11-06T16:25:26;10.00;99.90
59067;DHT22;44854;50.838;4.438;2022-11-06T16:27:51;9.90;99.90
59067;DHT22;44854;50.838;4.438;2022-11-06T16:30:20;10.10;99.90
59067;DHT22;44854;50.838;4.438;2022-11-06T16:32:47;10.10;99.90
59067;DHT22;44854;50.838;4.438;2022-11-06T16:35:28;10.10;99.90
59067;DHT22;44854;50.838;4.438;2022-11-06T16:37:54;10.20;99.90
59067;DHT22;44854;50.838;4.438;2022-11-06T16:43:20;10.20;99.90
59067;DHT22;44854;50.838;4.438;2022-11-06T16:45:56;10.10;99.90
59067;DHT22;44854;50.838;4.438;2022-11-06T16:50:51;10.10;99.90
59067;DHT22;44854;50.838;4.438;2022-11-06T16:53:18;10.10;99.90
59067;DHT22;44854;50.838;4.438;2022-11-06T16:55:54;10.10;99.90
59067;DHT22;44854;50.838;4.438;2022-11-06T16:58:20;10.10;99.90
59067;DHT22;44854;50.838;4.438;2022-11-06T17:00:53;10.10;99.90
59067;DHT22;44854;50.838;4.438;2022-11-06T17:03:20;10.10;99.90
59067;DHT22;44854;50.838;4.438;2022-11-06T17:05:56;10.20;99.90
59067;DHT22;44854;50.838;4.438;2022-11-06T17:10:55;10.10;99.90
59067;DHT22;44854;50.838;4.438;2022-11-06T17:13:21;10.20;99.90
59067;DHT22;44854;50.838;4.438;2022-11-06T17:18:15;10.30;99.90
59067;DHT22;44854;50.838;4.438;2022-11-06T17:20:42;10.30;99.90
59067;DHT22;44854;50.838;4.438;2022-11-06T17:23:09;10.50;99.90
59067;DHT22;44854;50.838;4.438;2022-11-06T17:25:35;10.50;99.90
59067;DHT22;44854;50.838;4.438;2022-11-06T17:28:00;10.50;99.90
59067;DHT22;44854;50.838;4.438;2022-11-06T17:30:26;10.50;99.90
59067;DHT22;44854;50.838;4.438;2022-11-06T17:32:51;10.50;99.90
59067;DHT22;44854;50.838;4.438;2022-11-06T17:35:17;10.50;99.90
59067;DHT22;44854;50.838;4.438;2022-11-06T17:37:42;10.50;99.90
59067;DHT22;44854;50.838;4.438;2022-11-06T17:40:08;10.50;99.90
59067;DHT22;44854;50.838;4.438;2022-11-06T17:42:37;10.50;99.90
59067;DHT22;44854;50.838;4.438;2022-11-06T17:45:02;10.50;99.90
59067;DHT22;44854;50.838;4.438;2022-11-06T17:47:28;10.50;99.90
59067;DHT22;44854;50.838;4.438;2022-11-06T17:49:53;10.50;99.90
59067;DHT22;44854;50.838;4.438;2022-11-06T17:52:19;10.50;99.90
59067;DHT22;44854;50.838;4.438;2022-11-06T17:54:45;10.50;99.90
59067;DHT22;44854;50.838;4.438;2022-11-06T17:57:12;10.50;99.90
59067;DHT22;44854;50.838;4.438;2022-11-06T17:59:38;10.60;99.90
59067;DHT22;44854;50.838;4.438;2022-11-06T18:02:03;10.60;99.90
59067;DHT22;44854;50.838;4.438;2022-11-06T18:04:29;10.70;99.90
59067;DHT22;44854;50.838;4.438;2022-11-06T18:06:55;10.70;99.90
59067;DHT22;44854;50.838;4.438;2022-11-06T18:09:21;10.80;99.90
59067;DHT22;44854;50.838;4.438;2022-11-06T18:11:47;10.80;99.90
59067;DHT22;44854;50.838;4.438;2022-11-06T18:14:13;10.80;99.90
59067;DHT22;44854;50.838;4.438;2022-11-06T18:16:39;10.80;99.90
59067;DHT22;44854;50.838;4.438;2022-11-06T18:19:06;10.80;99.90
59067;DHT22;44854;50.838;4.438;2022-11-06T18:21:31;10.80;99.90
59067;DHT22;44854;50.838;4.438;2022-11-06T18:23:57;10.80;99.90
59067;DHT22;44854;50.838;4.438;2022-11-06T18:26:23;10.80;99.90
59067;DHT22;44854;50.838;4.438;2022-11-06T18:28:49;10.90;99.90
59067;DHT22;44854;50.838;4.438;2022-11-06T18:31:14;10.90;99.90
59067;DHT22;44854;50.838;4.438;2022-11-06T18:33:40;11.00;99.90
59067;DHT22;44854;50.838;4.438;2022-11-06T18:36:06;10.90;99.90
59067;DHT22;44854;50.838;4.438;2022-11-06T18:38:32;10.90;99.90
59067;DHT22;44854;50.838;4.438;2022-11-06T18:40:58;11.00;99.90
59067;DHT22;44854;50.838;4.438;2022-11-06T18:43:24;11.00;99.90
59067;DHT22;44854;50.838;4.438;2022-11-06T18:45:49;11.00;99.90
59067;DHT22;44854;50.838;4.438;2022-11-06T18:48:15;11.00;99.90
59067;DHT22;44854;50.838;4.438;2022-11-06T18:50:41;11.00;99.90
59067;DHT22;44854;50.838;4.438;2022-11-06T18:53:09;11.00;99.90
59067;DHT22;44854;50.838;4.438;2022-11-06T18:55:41;11.10;99.90
59067;DHT22;44854;50.838;4.438;2022-11-06T18:58:06;11.20;99.90
59067;DHT22;44854;50.838;4.438;2022-11-06T19:00:32;11.10;99.90
59067;DHT22;44854;50.838;4.438;2022-11-06T19:02:57;11.10;99.90
59067;DHT22;44854;50.838;4.438;2022-11-06T19:05:23;11.10;99.90
59067;DHT22;44854;50.838;4.438;2022-11-06T19:07:49;11.20;99.90
59067;DHT22;44854;50.838;4.438;2022-11-06T19:10:14;11.20;99.90
59067;DHT22;44854;50.838;4.438;2022-11-06T19:12:40;11.30;99.90
59067;DHT22;44854;50.838;4.438;2022-11-06T19:15:06;11.20;99.90
59067;DHT22;44854;50.838;4.438;2022-11-06T19:17:32;11.30;99.90
59067;DHT22;44854;50.838;4.438;2022-11-06T19:19:57;11.30;99.90
59067;DHT22;44854;50.838;4.438;2022-11-06T19:22:24;11.20;99.90
59067;DHT22;44854;50.838;4.438;2022-11-06T19:24:49;11.30;99.90
59067;DHT22;44854;50.838;4.438;2022-11-06T19:27:15;11.40;99.90
59067;DHT22;44854;50.838;4.438;2022-11-06T19:29:40;11.50;99.90
59067;DHT22;44854;50.838;4.438;2022-11-06T19:32:06;11.50;99.90
59067;DHT22;44854;50.838;4.438;2022-11-06T19:34:32;11.50;99.90
59067;DHT22;44854;50.838;4.438;2022-11-06T19:36:57;11.60;99.90
59067;DHT22;44854;50.838;4.438;2022-11-06T19:39:23;11.70;99.90
59067;DHT22;44854;50.838;4.438;2022-11-06T19:41:48;11.70;99.90
59067;DHT22;44854;50.838;4.438;2022-11-06T19:44:14;11.70;99.90
59067;DHT22;44854;50.838;4.438;2022-11-06T19:46:39;11.60;99.90
59067;DHT22;44854;50.838;4.438;2022-11-06T19:49:06;11.50;99.90
59067;DHT22;44854;50.838;4.438;2022-11-06T19:51:32;11.60;99.90
59067;DHT22;44854;50.838;4.438;2022-11-06T19:53:57;11.50;99.90
59067;DHT22;44854;50.838;4.438;2022-11-06T19:56:23;11.40;99.90
59067;DHT22;44854;50.838;4.438;2022-11-06T19:58:50;11.30;99.90
59067;DHT22;44854;50.838;4.438;2022-11-06T20:01:16;11.40;99.90
59067;DHT22;44854;50.838;4.438;2022-11-06T20:03:41;11.30;99.90
59067;DHT22;44854;50.838;4.438;2022-11-06T20:06:07;11.30;99.90
59067;DHT22;44854;50.838;4.438;2022-11-06T20:08:33;11.20;99.90
59067;DHT22;44854;50.838;4.438;2022-11-06T20:11:08;11.20;99.90
59067;DHT22;44854;50.838;4.438;2022-11-06T20:13:36;11.30;99.90
59067;DHT22;44854;50.838;4.438;2022-11-06T20:16:07;11.40;99.90
59067;DHT22;44854;50.838;4.438;2022-11-06T20:18:32;11.50;99.90
59067;DHT22;44854;50.838;4.438;2022-11-06T20:21:00;11.50;99.90
59067;DHT22;44854;50.838;4.438;2022-11-06T20:23:26;11.50;99.90
59067;DHT22;44854;50.838;4.438;2022-11-06T20:25:52;11.50;99.90
59067;DHT22;44854;50.838;4.438;2022-11-06T20:28:18;11.50;99.90
59067;DHT22;44854;50.838;4.438;2022-11-06T20:30:44;11.60;99.90
59067;DHT22;44854;50.838;4.438;2022-11-06T20:33:09;11.60;99.90
59067;DHT22;44854;50.838;4.438;2022-11-06T20:35:35;11.50;99.90
59067;DHT22;44854;50.838;4.438;2022-11-06T20:38:01;11.40;99.90
59067;DHT22;44854;50.838;4.438;2022-11-06T20:40:27;11.50;99.90
59067;DHT22;44854;50.838;4.438;2022-11-06T20:42:52;11.40;99.90
59067;DHT22;44854;50.838;4.438;2022-11-06T20:45:18;11.50;99.90
59067;DHT22;44854;50.838;4.438;2022-11-06T20:47:43;11.60;99.90
59067;DHT22;44854;50.838;4.438;2022-11-06T20:50:09;11.60;99.90
59067;DHT22;44854;50.838;4.438;2022-11-06T20:52:34;11.60;99.90
59067;DHT22;44854;50.838;4.438;2022-11-06T20:55:00;11.60;99.90
59067;DHT22;44854;50.838;4.438;2022-11-06T20:57:25;11.60;99.90
59067;DHT22;44854;50.838;4.438;2022-11-06T20:59:51;11.70;99.90
59067;DHT22;44854;50.838;4.438;2022-11-06T21:02:16;11.70;99.90
59067;DHT22;44854;50.838;4.438;2022-11-06T21:04:42;11.70;99.90
59067;DHT22;44854;50.838;4.438;2022-11-06T21:07:07;11.70;99.90
59067;DHT22;44854;50.838;4.438;2022-11-06T21:09:33;11.80;99.90
59067;DHT22;44854;50.838;4.438;2022-11-06T21:11:58;11.80;99.90
59067;DHT22;44854;50.838;4.438;2022-11-06T21:14:24;11.80;99.90
59067;DHT22;44854;50.838;4.438;2022-11-06T21:16:50;11.80;99.90
59067;DHT22;44854;50.838;4.438;2022-11-06T21:19:16;11.80;99.90
59067;DHT22;44854;50.838;4.438;2022-11-06T21:21:42;11.80;99.90
59067;DHT22;44854;50.838;4.438;2022-11-06T21:24:08;11.90;99.90
59067;DHT22;44854;50.838;4.438;2022-11-06T21:26:35;11.90;99.90
59067;DHT22;44854;50.838;4.438;2022-11-06T21:29:02;11.80;99.90
59067;DHT22;44854;50.838;4.438;2022-11-06T21:31:28;11.90;99.90
59067;DHT22;44854;50.838;4.438;2022-11-06T21:33:56;12.00;99.90
59067;DHT22;44854;50.838;4.438;2022-11-06T21:36:29;12.00;99.90
59067;DHT22;44854;50.838;4.438;2022-11-06T21:38:56;12.00;99.90
59067;DHT22;44854;50.838;4.438;2022-11-06T21:41:23;12.10;99.90
59067;DHT22;44854;50.838;4.438;2022-11-06T21:43:49;12.20;99.90
59067;DHT22;44854;50.838;4.438;2022-11-06T21:46:15;12.20;99.90
59067;DHT22;44854;50.838;4.438;2022-11-06T21:48:40;12.20;99.90
59067;DHT22;44854;50.838;4.438;2022-11-06T21:51:07;12.10;99.90
59067;DHT22;44854;50.838;4.438;2022-11-06T21:53:33;12.10;99.90
59067;DHT22;44854;50.838;4.438;2022-11-06T21:56:17;12.10;99.90
59067;DHT22;44854;50.838;4.438;2022-11-06T21:58:43;12.10;99.90
59067;DHT22;44854;50.838;4.438;2022-11-06T22:01:08;12.10;99.90
59067;DHT22;44854;50.838;4.438;2022-11-06T22:03:34;12.10;99.90
59067;DHT22;44854;50.838;4.438;2022-11-06T22:06:04;12.10;99.90
59067;DHT22;44854;50.838;4.438;2022-11-06T22:08:30;12.20;99.90
59067;DHT22;44854;50.838;4.438;2022-11-06T22:10:55;12.20;99.90
59067;DHT22;44854;50.838;4.438;2022-11-06T22:13:21;12.30;99.90
59067;DHT22;44854;50.838;4.438;2022-11-06T22:15:46;12.10;99.90
59067;DHT22;44854;50.838;4.438;2022-11-06T22:18:12;12.10;99.90
59067;DHT22;44854;50.838;4.438;2022-11-06T22:20:38;12.30;99.90
59067;DHT22;44854;50.838;4.438;2022-11-06T22:23:03;12.20;99.90
59067;DHT22;44854;50.838;4.438;2022-11-06T22:25:29;12.20;99.90
59067;DHT22;44854;50.838;4.438;2022-11-06T22:27:54;12.20;99.90
59067;DHT22;44854;50.838;4.438;2022-11-06T22:30:20;12.20;99.90
59067;DHT22;44854;50.838;4.438;2022-11-06T22:32:45;12.20;99.90
59067;DHT22;44854;50.838;4.438;2022-11-06T22:35:11;12.30;99.90
59067;DHT22;44854;50.838;4.438;2022-11-06T22:37:36;12.30;99.90
59067;DHT22;44854;50.838;4.438;2022-11-06T22:40:02;12.20;99.90
59067;DHT22;44854;50.838;4.438;2022-11-06T22:42:27;12.20;99.90
59067;DHT22;44854;50.838;4.438;2022-11-06T22:44:53;12.20;99.90
59067;DHT22;44854;50.838;4.438;2022-11-06T22:47:18;12.10;99.90
59067;DHT22;44854;50.838;4.438;2022-11-06T22:49:44;12.10;99.90
59067;DHT22;44854;50.838;4.438;2022-11-06T22:52:09;12.10;99.90
59067;DHT22;44854;50.838;4.438;2022-11-06T22:54:35;12.20;99.90
59067;DHT22;44854;50.838;4.438;2022-11-06T22:57:01;12.20;99.90
59067;DHT22;44854;50.838;4.438;2022-11-06T22:59:26;12.30;99.90
59067;DHT22;44854;50.838;4.438;2022-11-06T23:01:52;12.30;99.90
59067;DHT22;44854;50.838;4.438;2022-11-06T23:04:17;12.10;99.90
59067;DHT22;44854;50.838;4.438;2022-11-06T23:06:43;12.10;99.90
59067;DHT22;44854;50.838;4.438;2022-11-06T23:09:09;12.00;99.90
59067;DHT22;44854;50.838;4.438;2022-11-06T23:11:34;12.10;99.90
59067;DHT22;44854;50.838;4.438;2022-11-06T23:14:00;12.00;99.90
59067;DHT22;44854;50.838;4.438;2022-11-06T23:16:26;12.10;99.90
59067;DHT22;44854;50.838;4.438;2022-11-06T23:19:11;12.10;99.90
